KASG

Springdale Municipal Airport

Springdale, Arkansas, USA
METAR KASG 190248Z 16006KT 10SM OVC010 12/12 A2970
Observed Flight Rules
Jan-19 @ 02:48 UTC (4 hours ago) Marginal Visual Flight Rules
Wind Visibility Clouds
160° at 6 knots 10 miles
  • Overcast at 1,000' AGL
Temperatures Readings
Current 12°C / 54°F
Dewpoint 12°C / 54°F
Humidity 100%
Altimeter 29.7" Hg
Pressure 1005.72 hPa
Elevation 412
METAR KASG 190248Z 16006KT 10SM OVC010 12/12 A2970
Observed Flight Rules
Jan-19 @ 02:48 UTC
(4 hours ago)
MVFR
Wind Visibility
160° at 6 knots 10 miles
Clouds
  • Overcast at 1,000' AGL
Temperature Dewpoint
12°C / 54°F 12°C / 54°F
Humidity Altimeter Pressure
100% 29.7" Hg 1005.72 hPa